Time;durP1;ratioP1;P1;durP2;ratioP2;P2;SDS_P1;SDS_P2;PMS_P1;PMS_P2;Temp;Humidity;BMP_temperature;BMP_pressure;BME280_temperature;BME280_humidity;BME280_pressure;Samples;Min_cycle;Max_cycle;Signal;HPM_P1;HPM_P2
2023/06/24 00:00:05;;;;;;;35.45;20.05;;;;;;;18.19;88.30;98958.09;6139623;23;20669;-92
2023/06/24 00:02:36;;;;;;;36.22;20.20;;;;;;;17.84;87.94;98903.84;6137646;23;20024;-92
2023/06/24 00:05:04;;;;;;;34.55;19.70;;;;;;;17.96;88.10;98920.22;6110095;23;20024;-92
2023/06/24 00:07:30;;;;;;;31.88;18.95;;;;;;;17.95;88.05;98937.19;6110215;23;20028;-94
2023/06/24 00:09:57;;;;;;;35.58;18.67;;;;;;;17.94;88.07;98930.06;6133833;23;20072;-93
2023/06/24 00:12:24;;;;;;;;;;;;;;;18.16;88.12;98961.63;6133857;23;20121;-92
2023/06/24 00:18:06;;;;;;;30.23;17.58;;;;;;;17.79;86.49;98898.63;6190945;23;20024;-92
2023/06/24 00:21:03;;;;;;;27.80;15.68;;;;;;;18.14;86.38;98956.44;6134918;23;20157;-93
2023/06/24 00:23:43;;;;;;;29.65;16.73;;;;;;;17.75;86.26;98897.75;6112369;23;20028;-92
2023/06/24 00:26:09;;;;;;;22.23;15.20;;;;;;;17.77;85.82;98896.22;6182777;23;20024;-91
2023/06/24 00:28:44;;;;;;;24.80;16.33;;;;;;;17.59;86.34;98873.03;6151121;23;20017;-92
2023/06/24 00:31:11;;;;;;;26.55;17.00;;;;;;;18.11;86.54;98953.63;6083423;23;20018;-91
2023/06/24 00:33:37;;;;;;;26.27;15.95;;;;;;;17.73;86.45;98898.13;6081876;23;20072;-93
2023/06/24 00:36:03;;;;;;;22.83;15.43;;;;;;;17.70;86.20;98889.75;6083376;23;20180;-93
2023/06/24 00:38:32;;;;;;;20.52;14.50;;;;;;;17.87;85.96;98921.66;6082396;23;20257;-93
2023/06/24 00:40:59;;;;;;;20.20;13.98;;;;;;;17.80;85.80;98920.38;6081824;23;20017;-92
2023/06/24 00:43:26;;;;;;;20.77;14.43;;;;;;;17.72;85.83;98892.97;6130113;23;20460;-91
2023/06/24 00:45:53;;;;;;;21.20;14.10;;;;;;;18.10;85.60;98940.97;6128266;23;20026;-92
2023/06/24 00:48:21;;;;;;;;;;;;;;;18.15;85.83;98949.75;6128685;23;20029;-92
2023/06/24 00:50:49;;;;;;;19.08;13.82;;;;;;;17.87;85.65;98925.22;6080414;23;19921;-92
2023/06/24 00:53:20;;;;;;;18.67;13.13;;;;;;;17.90;86.02;98921.72;6128825;23;20017;-91
2023/06/24 00:55:46;;;;;;;17.25;13.88;;;;;;;17.93;85.96;98920.16;6080100;23;20112;-91
2023/06/24 00:58:16;;;;;;;19.30;13.35;;;;;;;17.61;85.70;98876.19;6103295;23;20069;-91
2023/06/24 01:00:45;;;;;;;17.35;12.80;;;;;;;17.78;85.69;98913.59;6105521;23;20065;-92
2023/06/24 01:03:16;;;;;;;15.20;12.35;;;;;;;17.62;85.30;98880.56;6081185;23;20017;-93
2023/06/24 01:05:44;;;;;;;18.40;12.13;;;;;;;17.46;85.47;98858.59;6103686;23;20353;-94
2023/06/24 01:08:15;;;;;;;17.95;12.77;;;;;;;17.64;85.38;98886.50;6081456;23;20025;-93
2023/06/24 01:10:42;;;;;;;16.58;12.25;;;;;;;17.55;85.68;98867.44;6082192;23;20524;-94
2023/06/24 01:13:08;;;;;;;15.93;12.68;;;;;;;17.65;85.23;98887.31;6106231;23;20070;-95
2023/06/24 01:15:36;;;;;;;17.67;13.10;;;;;;;17.84;85.63;98925.94;6080922;23;20037;-94
2023/06/24 01:18:04;;;;;;;17.98;13.10;;;;;;;17.97;85.91;98938.41;6082637;23;20024;-95
2023/06/24 01:20:55;;;;;;;16.95;13.20;;;;;;;17.99;85.78;98947.13;6082043;23;20168;-94
2023/06/24 01:23:45;;;;;;;19.00;14.00;;;;;;;18.08;85.91;98950.44;6083212;23;20029;-94
2023/06/24 01:26:20;;;;;;;19.75;14.60;;;;;;;18.12;85.57;98947.72;6081454;23;20021;-94
2023/06/24 01:29:06;;;;;;;26.83;15.25;;;;;;;17.57;85.54;98858.75;6133214;23;20136;-94
2023/06/24 01:32:13;;;;;;;28.40;15.88;;;;;;;17.81;85.41;98891.56;6132942;23;20022;-94
2023/06/24 01:34:51;;;;;;;21.00;14.38;;;;;;;17.68;85.47;98865.28;6107354;23;20067;-95
2023/06/24 01:37:42;;;;;;;24.23;14.57;;;;;;;17.65;85.31;98854.97;6107634;23;20455;-96
2023/06/24 01:40:28;;;;;;;21.05;13.95;;;;;;;18.07;85.13;98918.41;6128211;23;20018;-94
2023/06/24 01:42:57;;;;;;;21.70;13.30;;;;;;;17.91;85.13;98895.63;6081862;23;20026;-92
2023/06/24 01:45:27;;;;;;;15.98;12.10;;;;;;;17.66;83.38;98855.75;6128425;23;20025;-94
2023/06/24 01:48:01;;;;;;;16.45;11.75;;;;;;;17.62;83.63;98855.69;6110459;23;20112;-94
2023/06/24 01:50:32;;;;;;;16.15;12.60;;;;;;;17.97;83.13;98913.50;6130566;23;20078;-95
2023/06/24 01:52:59;;;;;;;19.75;12.10;;;;;;;17.61;83.04;98852.13;6111838;23;20073;-96
2023/06/24 01:55:28;;;;;;;15.02;10.98;;;;;;;17.86;82.90;98897.94;6112051;23;20026;-95
2023/06/24 01:57:57;;;;;;;17.98;12.45;;;;;;;18.03;82.99;98914.78;6111142;23;20022;-94
2023/06/24 02:00:25;;;;;;;16.25;11.75;;;;;;;17.75;82.02;98875.63;6161797;23;20075;-95
2023/06/24 02:03:17;;;;;;;17.80;12.73;;;;;;;18.32;82.55;98948.41;6109451;23;20040;-95
2023/06/24 02:05:49;;;;;;;14.38;11.43;;;;;;;18.00;82.05;98887.09;6110854;23;20033;-95
2023/06/24 02:08:16;;;;;;;17.02;11.48;;;;;;;18.28;81.59;98915.16;6112816;23;20021;-95
2023/06/24 02:10:50;;;;;;;16.85;11.98;;;;;;;18.48;80.97;98923.34;6132969;23;20033;-96
2023/06/24 02:13:42;;;;;;;22.30;11.82;;;;;;;18.83;81.16;98956.22;6087608;23;20028;-95
2023/06/24 02:16:42;;;;;;;14.48;9.30;;;;;;;18.27;77.99;98874.81;6123102;23;20036;-96
2023/06/24 02:19:10;;;;;;;14.60;8.05;;;;;;;18.42;77.29;98897.16;6086422;23;20467;-94
2023/06/24 02:21:46;;;;;;;11.75;7.40;;;;;;;18.45;76.46;98908.28;6137208;23;20028;-94
2023/06/24 02:24:38;;;;;;;10.60;6.55;;;;;;;18.12;75.55;98880.56;6139904;23;20016;-95
2023/06/24 02:27:05;;;;;;;7.88;6.30;;;;;;;18.20;76.90;98909.91;6135343;23;20378;-96
2023/06/24 02:30:00;;;;;;;8.55;6.00;;;;;;;18.45;76.72;98958.09;6108150;23;20085;-91
2023/06/24 02:32:38;;;;;;;8.38;6.45;;;;;;;18.03;76.89;98900.16;6135185;23;20021;-92
2023/06/24 02:35:07;;;;;;;9.23;6.75;;;;;;;17.90;76.90;98891.28;6135893;23;20024;-92
2023/06/24 02:37:34;;;;;;;11.02;6.35;;;;;;;17.78;76.82;98886.78;6137664;23;20483;-95
2023/06/24 02:40:57;;;;;;;8.02;6.22;;;;;;;18.30;76.96;98954.31;6136908;23;20013;-95
2023/06/24 02:43:25;;;;;;;10.40;5.70;;;;;;;18.12;76.72;98919.28;6136082;23;20025;-94
2023/06/24 02:45:53;;;;;;;9.25;6.10;;;;;;;17.88;76.18;98898.34;6133624;23;20108;-96
2023/06/24 02:48:21;;;;;;;7.35;6.22;;;;;;;17.89;76.61;98916.56;6137654;23;20060;-94
2023/06/24 02:53:27;;;;;;;11.40;6.07;;;;;;;17.79;77.17;98904.97;6167257;23;20459;-92
2023/06/24 02:56:27;;;;;;;9.25;5.60;;;;;;;17.90;76.78;98923.69;6167950;23;20162;-94
2023/06/24 02:58:54;;;;;;;7.50;4.78;;;;;;;17.76;75.93;98886.34;6131010;23;20026;-95
2023/06/24 03:01:27;;;;;;;5.93;4.80;;;;;;;17.58;75.70;98883.28;6083642;23;20548;-95
2023/06/24 03:03:56;;;;;;;7.00;4.10;;;;;;;17.51;75.41;98887.88;6085462;23;20049;-92
2023/06/24 03:06:49;;;;;;;5.43;4.15;;;;;;;17.99;75.01;98969.25;6079805;23;20037;-92
2023/06/24 03:09:58;;;;;;;6.13;3.22;;;;;;;17.59;75.20;98906.19;6113745;23;20076;-94
2023/06/24 03:12:25;;;;;;;4.10;3.40;;;;;;;17.40;75.57;98875.84;6090468;23;20026;-91
2023/06/24 03:14:59;;;;;;;4.32;2.78;;;;;;;17.60;75.14;98916.84;6114547;23;20089;-93
2023/06/24 03:17:27;;;;;;;3.63;2.55;;;;;;;17.74;74.72;98929.31;6095134;23;20048;-92
2023/06/24 03:19:57;;;;;;;6.00;2.85;;;;;;;17.47;75.45;98887.03;6091819;23;20018;-91
2023/06/24 03:22:54;;;;;;;4.35;2.63;;;;;;;17.44;74.29;98885.78;6109641;23;20097;-92
2023/06/24 03:26:10;;;;;;;3.72;2.60;;;;;;;17.64;74.50;98916.91;6184735;23;20032;-93
2023/06/24 03:28:39;;;;;;;4.47;2.75;;;;;;;17.63;74.92;98914.53;6143097;23;20017;-95
2023/06/24 03:39:42;;;;;;;2.15;1.95;;;;;;;17.40;74.45;98904.28;6250730;23;20028;-94
2023/06/24 03:42:38;;;;;;;3.15;1.98;;;;;;;17.75;75.01;98977.94;6201845;23;20465;-94
2023/06/24 03:45:15;;;;;;;2.00;1.80;;;;;;;17.15;74.78;98881.72;6205680;23;20023;-95
2023/06/24 03:48:45;;;;;;;2.17;1.83;;;;;;;17.58;74.71;98940.50;6081178;23;20029;-96
2023/06/24 03:54:29;;;;;;;4.00;2.15;;;;;;;17.87;75.46;98974.19;6166569;23;20036;-95
2023/06/24 03:58:07;;;;;;;;;;;;;;;;;;;;;
2023/06/24 04:01:21;;;;;;;4.05;1.92;;;;;;;17.48;74.46;98932.81;6191103;23;20031;-92
2023/06/24 04:03:56;;;;;;;5.22;2.10;;;;;;;17.53;74.39;98930.56;6123741;23;20029;-94
2023/06/24 04:11:22;;;;;;;5.18;2.17;;;;;;;18.00;74.28;98981.13;6170372;23;20017;-93
2023/06/24 04:14:47;;;;;;;2.85;1.92;;;;;;;17.93;74.33;98979.03;6170061;23;20013;-92
2023/06/24 04:17:16;;;;;;;5.35;2.30;;;;;;;17.63;74.43;98918.09;6163179;23;20022;-91
2023/06/24 04:19:58;;;;;;;4.47;2.00;;;;;;;18.08;74.77;98980.88;6109096;23;20052;-94
2023/06/24 04:25:19;;;;;;;5.70;2.40;;;;;;;17.70;73.97;98934.78;6133016;23;20073;-94
2023/06/24 04:28:36;;;;;;;4.75;2.22;;;;;;;18.20;74.53;98987.34;6085796;23;20102;-94
2023/06/24 04:31:04;;;;;;;10.18;2.40;;;;;;;17.90;73.12;98938.28;6084417;23;20021;-93
2023/06/24 04:33:30;;;;;;;4.32;2.40;;;;;;;18.15;73.73;98980.19;6108194;23;20025;-93
2023/06/24 04:35:59;;;;;;;3.78;2.03;;;;;;;17.58;73.18;98899.88;6134391;23;20101;-92
2023/06/24 04:42:37;;;;;;;3.03;2.00;;;;;;;17.87;73.48;98954.84;6137319;23;20017;-93
2023/06/24 04:45:07;;;;;;;4.07;2.10;;;;;;;18.26;73.74;99016.31;6099607;23;20027;-93
2023/06/24 04:47:33;;;;;;;6.65;2.20;;;;;;;17.82;73.54;98939.38;6151234;23;20156;-94
2023/06/24 04:50:25;;;;;;;3.35;2.30;;;;;;;18.33;73.41;99015.63;6135692;23;20029;-93
2023/06/24 04:59:17;;;;;;;3.75;2.22;;;;;;;17.77;72.91;98932.16;6188173;23;20375;-94
2023/06/24 05:01:49;;;;;;;5.72;1.90;;;;;;;18.43;71.91;99004.69;6071635;23;20127;-95
2023/06/24 05:04:15;;;;;;;9.32;2.05;;;;;;;18.38;71.32;98993.97;6170849;23;20020;-96
2023/06/24 05:06:42;;;;;;;3.80;2.13;;;;;;;18.48;72.36;99009.13;6147253;23;20022;-96
2023/06/24 05:10:04;;;;;;;7.40;2.42;;;;;;;18.65;70.86;99022.44;6146829;23;20098;-92
2023/06/24 05:12:33;;;;;;;4.32;2.13;;;;;;;18.29;70.77;98971.28;6147954;23;20078;-96
2023/06/24 05:19:43;;;;;;;4.63;2.03;;;;;;;18.42;70.95;98971.88;6082311;23;20033;-94
2023/06/24 05:22:29;;;;;;;3.53;2.15;;;;;;;18.40;70.43;98977.78;6083584;23;19999;-95
2023/06/24 05:25:09;;;;;;;;;;;;;;;;;;;;;
2023/06/24 05:30:38;;;;;;;4.38;2.20;;;;;;;18.15;70.76;98968.31;6228508;23;20025;-91
2023/06/24 05:34:04;;;;;;;8.38;2.10;;;;;;;18.44;71.29;99017.38;6132008;23;20021;-93
2023/06/24 05:36:46;;;;;;;5.10;2.10;;;;;;;17.72;71.54;98928.91;6128376;23;20106;-93
2023/06/24 05:39:14;;;;;;;3.33;2.10;;;;;;;18.31;71.46;99016.00;6172257;23;20025;-92
2023/06/24 05:41:48;;;;;;;6.18;4.53;;;;;;;18.00;70.97;98964.53;6203232;23;20017;-92
2023/06/24 05:47:37;;;;;;;2.35;1.70;;;;;;;18.38;70.13;98984.88;6193484;23;20025;-94
2023/06/24 05:53:45;;;;;;;4.13;2.20;;;;;;;18.63;69.58;99023.97;6222895;23;20024;-93
2023/06/24 05:56:23;;;;;;;4.00;1.98;;;;;;;18.44;69.81;98998.03;6154723;23;20016;-92
2023/06/24 05:59:07;;;;;;;5.80;1.80;;;;;;;18.53;69.79;99033.72;6205362;23;20039;-95
2023/06/24 06:01:59;;;;;;;3.53;2.10;;;;;;;18.52;70.15;99034.88;6184831;23;20017;-93
2023/06/24 06:05:01;;;;;;;1.92;1.70;;;;;;;17.95;69.44;98964.84;6203026;23;20159;-92
2023/06/24 06:07:28;;;;;;;6.90;1.90;;;;;;;18.02;70.68;98974.06;6176740;23;20063;-94
2023/06/24 06:09:54;;;;;;;4.23;2.37;;;;;;;18.16;70.75;98994.81;6176466;23;20017;-95
2023/06/24 06:12:21;;;;;;;5.53;2.90;;;;;;;17.75;70.60;98953.84;6198810;23;20016;-95
2023/06/24 06:14:47;;;;;;;7.85;2.55;;;;;;;17.74;70.46;98968.03;6172957;23;20059;-93
2023/06/24 06:17:15;;;;;;;5.23;2.77;;;;;;;18.19;70.84;99043.88;6220736;23;20405;-95
2023/06/24 06:19:41;;;;;;;3.30;2.55;;;;;;;17.98;71.16;99025.75;6197581;23;20016;-94
2023/06/24 06:22:08;;;;;;;3.38;2.17;;;;;;;18.24;70.77;99046.31;6173375;23;20012;-94
2023/06/24 06:24:34;;;;;;;3.97;2.20;;;;;;;18.08;71.83;99004.97;6175670;23;20040;-96
2023/06/24 06:27:00;;;;;;;4.05;2.47;;;;;;;18.05;71.22;98991.88;6171234;23;20017;-95
2023/06/24 06:29:29;;;;;;;4.35;2.13;;;;;;;18.23;70.43;99048.28;6175358;23;20023;-93
2023/06/24 06:31:58;;;;;;;4.50;2.22;;;;;;;17.73;71.30;98992.09;6198110;23;20020;-92
2023/06/24 06:34:25;;;;;;;6.65;2.20;;;;;;;17.73;71.84;98999.59;6172019;23;20012;-94
2023/06/24 06:36:51;;;;;;;4.70;2.37;;;;;;;17.58;71.80;98976.44;6172028;23;20016;-91
2023/06/24 06:39:38;;;;;;;2.10;1.83;;;;;;;17.51;71.66;98965.25;6170433;23;20282;-90
2023/06/24 06:42:12;;;;;;;4.78;1.90;;;;;;;17.74;71.90;98996.47;6164411;23;20047;-88
2023/06/24 06:44:39;;;;;;;10.23;2.00;;;;;;;17.91;71.62;99033.91;6183595;23;20722;-90
2023/06/24 06:47:06;;;;;;;4.90;2.47;;;;;;;17.83;71.74;99005.34;6135509;23;20013;-90
2023/06/24 06:49:32;;;;;;;4.85;2.30;;;;;;;17.81;71.38;98995.81;6168656;23;20048;-92
2023/06/24 06:52:16;;;;;;;3.17;2.10;;;;;;;18.24;71.47;99051.84;6131252;23;20028;-93
2023/06/24 06:54:59;;;;;;;8.15;2.33;;;;;;;18.09;71.60;99017.63;6139376;23;20021;-95
2023/06/24 06:57:26;;;;;;;4.03;2.17;;;;;;;17.88;71.48;98990.44;6138260;23;20017;-92
2023/06/24 06:59:52;;;;;;;3.75;2.40;;;;;;;17.98;70.59;98998.09;6090432;23;20147;-91
2023/06/24 07:02:54;;;;;;;6.00;2.53;;;;;;;18.24;71.24;99051.84;6165023;23;20091;-95
2023/06/24 07:05:42;;;;;;;6.57;2.55;;;;;;;17.61;70.67;98950.81;6138779;23;20028;-90
2023/06/24 07:08:56;;;;;;;5.90;2.30;;;;;;;18.01;71.85;99016.72;6164037;23;20098;-95
2023/06/24 07:11:22;;;;;;;7.00;2.40;;;;;;;18.15;71.48;99029.19;6140994;23;20017;-90
2023/06/24 07:13:51;;;;;;;2.63;2.10;;;;;;;18.26;71.27;99053.06;6158766;23;20041;-91
2023/06/24 07:16:18;;;;;;;2.80;2.17;;;;;;;18.23;72.03;99064.09;6137429;23;20479;-91
2023/06/24 07:22:35;;;;;;;4.40;2.40;;;;;;;18.52;71.74;99046.75;6184235;23;20374;-91
2023/06/24 07:25:42;;;;;;;3.97;2.40;;;;;;;18.55;71.11;99053.53;6138935;23;20052;-92
2023/06/24 07:28:40;;;;;;;9.70;3.33;;;;;;;18.36;70.29;99004.59;6136413;23;20016;-92
2023/06/24 07:31:26;;;;;;;20.17;3.10;;;;;;;18.48;70.47;99034.84;6152563;23;20051;-92
2023/06/24 07:34:53;;;;;;;7.35;2.97;;;;;;;18.15;69.47;98977.41;6115874;23;20013;-91
2023/06/24 07:40:50;;;;;;;8.00;3.00;;;;;;;18.62;69.35;99073.00;6190556;23;20374;-93
2023/06/24 07:46:18;;;;;;;17.02;3.38;;;;;;;18.50;69.69;99065.69;6069064;23;20050;-94
2023/06/24 08:01:07;;;;;;;10.55;3.17;;;;;;;18.41;68.43;99012.59;6230315;23;20020;-93
2023/06/24 08:17:15;;;;;;;6.30;3.00;;;;;;;18.38;67.66;99013.34;6144477;23;20031;-94
2023/06/24 08:19:44;;;;;;;8.70;3.17;;;;;;;18.63;68.68;99041.38;6164342;23;20028;-94
2023/06/24 08:23:17;;;;;;;;;;;;;;;;;;;;;
2023/06/24 08:45:36;;;;;;;14.45;3.60;;;;;;;18.68;67.58;99049.38;6191030;23;20064;-93
2023/06/24 08:48:04;;;;;;;11.73;3.58;;;;;;;18.58;67.14;99032.59;6116675;23;20367;-94
2023/06/24 08:50:44;;;;;;;11.18;3.90;;;;;;;18.76;67.81;99094.59;6144012;23;20040;-89
2023/06/24 08:53:22;;;;;;;7.00;3.35;;;;;;;18.70;68.23;99107.91;6191965;23;20029;-92
2023/06/24 08:55:53;;;;;;;11.43;4.20;;;;;;;18.38;68.29;99049.31;6147211;23;20065;-94
2023/06/24 09:02:20;;;;;;;7.22;3.72;;;;;;;18.97;68.93;99105.16;6183002;22;20064;-91
2023/06/24 09:05:54;;;;;;;4.40;3.50;;;;;;;18.79;68.43;99132.63;6164176;23;20018;-94
2023/06/24 09:12:12;;;;;;;13.63;3.20;;;;;;;17.94;69.34;99066.34;6090853;23;20017;-91
2023/06/24 09:15:17;;;;;;;6.75;3.00;;;;;;;18.00;69.94;99084.25;6141792;23;20040;-90
2023/06/24 09:17:46;;;;;;;13.07;3.58;;;;;;;18.37;70.72;99143.75;6112091;23;20029;-91
2023/06/24 09:20:24;;;;;;;;;;;;;;;;;;;;;
2023/06/24 09:26:26;;;;;;;8.95;3.60;;;;;;;17.64;71.99;99079.22;6114722;23;20025;-94
2023/06/24 09:37:30;;;;;;;9.02;5.10;;;;;;;17.87;72.38;99127.06;6058391;23;20014;-95
2023/06/24 09:40:14;;;;;;;9.13;4.68;;;;;;;17.79;72.43;99114.28;6058693;23;20070;-93
2023/06/24 09:42:48;;;;;;;9.93;4.68;;;;;;;17.96;72.56;99146.22;6057511;23;20097;-92
2023/06/24 09:46:10;;;;;;;7.65;4.38;;;;;;;18.22;72.78;99173.16;6024033;23;20034;-94
2023/06/24 09:48:40;;;;;;;14.80;4.28;;;;;;;17.72;72.90;99103.06;5983476;23;20033;-96
2023/06/24 09:52:19;;;;;;;7.72;4.40;;;;;;;18.25;72.87;99189.84;5998612;23;20105;-91
2023/06/24 09:54:52;;;;;;;9.02;4.65;;;;;;;18.16;72.22;99158.84;6003970;23;20019;-91
2023/06/24 10:05:22;;;;;;;16.90;5.97;;;;;;;18.43;71.42;99209.50;6015851;23;20106;-90
2023/06/24 10:07:50;;;;;;;9.25;4.38;;;;;;;18.15;70.80;99148.94;6048555;23;20030;-91
2023/06/24 10:13:38;;;;;;;7.85;5.22;;;;;;;18.43;71.52;99219.78;6165505;23;20033;-91
2023/06/24 10:16:25;;;;;;;8.30;4.80;;;;;;;17.84;71.69;99131.38;6098147;23;20005;-93
2023/06/24 10:19:36;;;;;;;8.20;4.80;;;;;;;18.33;71.56;99201.03;6166653;23;20024;-91
2023/06/24 10:23:21;;;;;;;12.25;5.13;;;;;;;18.15;72.12;99189.66;6166166;23;20647;-90
2023/06/24 10:25:49;;;;;;;13.93;5.18;;;;;;;18.10;72.60;99192.69;6142888;23;20014;-89
2023/06/24 10:28:59;;;;;;;16.73;5.68;;;;;;;18.37;72.30;99233.13;6149275;23;20048;-95
2023/06/24 10:32:12;;;;;;;7.00;5.55;;;;;;;18.23;72.28;99199.66;6162350;23;20022;-91
2023/06/24 10:34:38;;;;;;;8.07;4.82;;;;;;;18.39;72.88;99233.56;6079547;23;20018;-94
2023/06/24 10:37:07;;;;;;;7.40;4.83;;;;;;;18.37;73.09;99238.66;6111597;23;20367;-90
2023/06/24 10:39:56;;;;;;;8.65;5.38;;;;;;;18.09;72.87;99178.06;6102949;23;20250;-88
2023/06/24 10:42:53;;;;;;;12.65;6.00;;;;;;;18.31;72.62;99204.19;6104247;23;20551;-89
2023/06/24 10:45:43;;;;;;;8.40;5.80;;;;;;;17.88;71.69;99142.53;6104298;23;20352;-95
2023/06/24 10:48:48;;;;;;;11.68;6.05;;;;;;;18.20;72.20;99215.03;5975083;23;20087;-93
2023/06/24 10:51:43;;;;;;;12.52;5.68;;;;;;;18.40;72.62;99249.00;6001463;24;20020;-94
2023/06/24 10:55:55;;;;;;;6.85;5.45;;;;;;;18.26;72.35;99223.84;5973242;23;20035;-88
2023/06/24 10:58:28;;;;;;;10.80;5.80;;;;;;;18.19;72.36;99213.44;5893450;24;20025;-89
2023/06/24 11:01:17;;;;;;;10.45;5.72;;;;;;;18.20;72.32;99222.53;5916871;24;20120;-88
2023/06/24 11:06:39;;;;;;;13.70;5.90;;;;;;;18.18;72.44;99219.31;6164266;23;20022;-89
2023/06/24 11:09:13;;;;;;;8.10;5.55;;;;;;;17.99;72.54;99186.97;6138523;23;20025;-88
2023/06/24 11:11:41;;;;;;;11.15;6.13;;;;;;;18.42;72.29;99252.22;6140878;23;20027;-91
2023/06/24 11:14:07;;;;;;;10.95;6.45;;;;;;;17.87;72.99;99190.66;6145351;23;20032;-88
2023/06/24 11:16:37;;;;;;;9.82;6.32;;;;;;;17.75;73.35;99201.88;6186788;23;20048;-91
2023/06/24 11:41:44;;;;;;;12.48;6.90;;;;;;;17.68;73.17;99218.28;6146746;23;20032;-93
2023/06/24 12:36:07;;;;;;;10.27;5.85;;;;;;;18.43;68.75;99251.03;6192394;23;20317;-94
2023/06/24 12:39:03;;;;;;;9.98;5.88;;;;;;;18.90;68.73;99310.03;6134648;23;20501;-93
2023/06/24 12:41:44;;;;;;;12.10;6.05;;;;;;;18.86;68.35;99315.53;6141369;23;20017;-90
2023/06/24 12:44:23;;;;;;;14.23;6.07;;;;;;;18.83;68.46;99318.22;6164822;23;20023;-87
2023/06/24 12:46:51;;;;;;;10.40;5.53;;;;;;;18.48;68.64;99295.03;6139565;23;20017;-90
2023/06/24 12:49:21;;;;;;;8.50;5.65;;;;;;;18.23;68.50;99266.88;6138115;23;20052;-91
2023/06/24 12:52:02;;;;;;;11.07;6.03;;;;;;;18.25;69.23;99285.88;6141988;23;20443;-91
2023/06/24 12:54:28;;;;;;;12.30;5.78;;;;;;;18.17;69.32;99268.31;6164804;23;20021;-89
2023/06/24 12:56:58;;;;;;;19.73;6.53;;;;;;;18.23;69.43;99266.06;6187772;23;20024;-89
2023/06/24 12:59:24;;;;;;;9.73;5.80;;;;;;;18.38;67.85;99284.56;6160876;23;20036;-89
2023/06/24 13:01:52;;;;;;;11.27;5.70;;;;;;;18.12;67.36;99242.94;6191628;23;20504;-90
2023/06/24 13:04:22;;;;;;;26.55;6.65;;;;;;;18.71;66.86;99322.75;6193667;23;20099;-86
2023/06/24 13:06:49;;;;;;;9.13;6.13;;;;;;;18.76;66.63;99316.13;6166367;23;20024;-91
2023/06/24 13:09:38;;;;;;;16.77;6.65;;;;;;;18.38;66.69;99251.34;6196553;23;20025;-93
2023/06/24 13:14:56;;;;;;;9.63;5.93;;;;;;;18.59;65.99;99277.81;6165956;23;20025;-91
2023/06/24 13:17:52;;;;;;;10.10;6.30;;;;;;;18.90;66.56;99332.22;6156943;23;20020;-89
2023/06/24 13:20:25;;;;;;;10.63;6.10;;;;;;;18.39;66.41;99268.75;6159994;23;20024;-92
2023/06/24 13:22:56;;;;;;;12.63;6.20;;;;;;;18.64;66.66;99321.81;6073466;23;20029;-94
2023/06/24 13:25:49;;;;;;;13.18;5.88;;;;;;;18.34;66.50;99271.81;6062645;23;20014;-90
2023/06/24 13:28:17;;;;;;;10.10;6.72;;;;;;;18.48;67.19;99297.00;6111993;23;20049;-89
2023/06/24 13:30:57;;;;;;;13.57;6.70;;;;;;;18.77;66.79;99350.97;6111168;23;20018;-90
2023/06/24 13:33:50;;;;;;;7.88;6.05;;;;;;;18.75;67.43;99350.53;6088214;23;20032;-92
2023/06/24 13:36:36;;;;;;;13.73;6.57;;;;;;;18.50;67.34;99317.59;6107738;23;20033;-91
2023/06/24 13:39:08;;;;;;;22.08;7.20;;;;;;;18.49;67.93;99326.28;6108898;23;20044;-92
2023/06/24 13:41:38;;;;;;;12.93;6.93;;;;;;;18.49;67.81;99310.47;6128490;23;20013;-91
2023/06/24 13:44:50;;;;;;;13.05;6.88;;;;;;;18.34;67.22;99275.38;6158389;23;20017;-91
2023/06/24 13:47:18;;;;;;;16.60;6.95;;;;;;;18.82;66.22;99311.91;6105411;23;20052;-93
2023/06/24 13:50:12;;;;;;;10.48;6.40;;;;;;;19.41;64.69;99367.94;6155113;23;20017;-90
2023/06/24 13:52:53;;;;;;;10.43;6.10;;;;;;;19.21;64.17;99343.06;6125983;23;20064;-92
2023/06/24 13:55:45;;;;;;;8.63;6.30;;;;;;;19.45;64.31;99361.25;6104603;23;20047;-90
2023/06/24 13:58:13;;;;;;;14.60;6.15;;;;;;;19.14;64.05;99319.94;6103316;23;20018;-88
2023/06/24 14:01:07;;;;;;;8.85;5.75;;;;;;;19.12;63.77;99308.47;6152957;23;20032;-90
2023/06/24 14:06:34;;;;;;;18.45;6.88;;;;;;;19.13;64.09;99280.34;6180826;23;20090;-91
2023/06/24 14:09:32;;;;;;;15.80;6.38;;;;;;;19.91;62.88;99363.19;6140295;23;20032;-91
2023/06/24 14:12:27;;;;;;;14.05;6.32;;;;;;;20.06;61.76;99341.97;6064145;23;20054;-90
2023/06/24 14:18:14;;;;;;;14.57;6.15;;;;;;;20.39;60.12;99330.88;6192668;23;20025;-89
2023/06/24 14:20:42;;;;;;;10.55;6.30;;;;;;;20.88;58.56;99366.00;6105547;23;20444;-90
2023/06/24 14:23:20;;;;;;;10.70;5.60;;;;;;;20.65;57.34;99293.13;6082838;23;20018;-92
2023/06/24 14:25:54;;;;;;;16.58;6.50;;;;;;;20.91;56.95;99294.97;6079243;23;20032;-93
2023/06/24 14:31:13;;;;;;;11.05;5.60;;;;;;;21.28;56.53;99333.00;6186755;23;20470;-90
2023/06/24 14:33:40;;;;;;;9.57;5.05;;;;;;;21.34;54.93;99329.50;6210257;23;20020;-91
2023/06/24 14:36:10;;;;;;;17.55;5.88;;;;;;;21.45;55.10;99320.44;6161689;23;20020;-91
2023/06/24 14:38:39;;;;;;;12.98;5.88;;;;;;;21.68;55.52;99340.50;6112002;23;20021;-92
2023/06/24 14:41:20;;;;;;;8.43;5.07;;;;;;;21.62;54.52;99305.06;6107607;23;20020;-93
2023/06/24 14:43:52;;;;;;;10.45;5.20;;;;;;;21.78;53.76;99288.88;6131845;23;20691;-93
2023/06/24 14:46:20;;;;;;;13.38;5.38;;;;;;;21.89;53.69;99294.53;6131565;23;20042;-91
2023/06/24 14:48:48;;;;;;;15.13;5.85;;;;;;;22.23;53.38;99356.34;6081112;23;20080;-92
2023/06/24 14:51:22;;;;;;;16.88;5.95;;;;;;;22.40;53.38;99354.84;6083899;23;20503;-91
2023/06/24 14:53:49;;;;;;;8.98;5.78;;;;;;;22.63;52.10;99348.94;6131129;23;20037;-94
2023/06/24 14:56:15;;;;;;;12.10;5.57;;;;;;;22.87;51.74;99352.97;6107051;23;20049;-85
2023/06/24 14:58:42;;;;;;;10.32;5.25;;;;;;;22.90;50.79;99358.56;6128943;23;20022;-91
2023/06/24 15:01:11;;;;;;;10.43;5.45;;;;;;;22.69;50.57;99341.81;6125840;23;20121;-91
2023/06/24 15:03:37;;;;;;;7.28;4.38;;;;;;;22.65;51.06;99335.41;6126122;23;20052;-84
2023/06/24 15:06:03;;;;;;;18.00;4.90;;;;;;;22.55;51.25;99348.13;6123002;23;20018;-90
2023/06/24 15:08:31;;;;;;;10.80;4.97;;;;;;;22.11;52.67;99356.66;6128318;23;20028;-95
2023/06/24 15:10:57;;;;;;;8.48;4.75;;;;;;;21.82;52.69;99359.28;6127618;23;20114;-86
2023/06/24 15:13:23;;;;;;;16.75;5.43;;;;;;;21.70;53.76;99368.72;6126749;23;20029;-81
2023/06/24 15:15:51;;;;;;;11.57;5.72;;;;;;;21.98;53.54;99359.75;6118953;23;20089;-79
2023/06/24 15:18:19;;;;;;;11.80;5.03;;;;;;;21.79;53.50;99371.97;6094462;23;20108;-92
2023/06/24 15:20:47;;;;;;;13.98;5.28;;;;;;;21.54;54.82;99345.97;6104923;23;20013;-79
2023/06/24 15:23:16;;;;;;;9.38;5.03;;;;;;;21.33;54.79;99358.50;6184232;23;20021;-93
2023/06/24 15:25:42;;;;;;;10.27;5.55;;;;;;;21.42;54.57;99366.50;6147714;23;20017;-86
2023/06/24 15:28:08;;;;;;;14.55;5.97;;;;;;;21.57;53.98;99373.00;6155788;23;20013;-91
2023/06/24 15:30:34;;;;;;;12.80;5.60;;;;;;;21.56;54.30;99377.78;6151594;23;20545;-90
2023/06/24 15:33:00;;;;;;;10.80;5.07;;;;;;;21.34;53.59;99373.19;6188730;23;20071;-83
2023/06/24 15:35:27;;;;;;;10.40;5.85;;;;;;;21.23;54.80;99375.88;6154806;23;21154;-89
2023/06/24 15:37:53;;;;;;;9.23;5.18;;;;;;;21.26;54.94;99372.34;6186307;23;20363;-79
2023/06/24 15:40:19;;;;;;;11.77;5.25;;;;;;;21.04;54.83;99360.19;6178483;23;20086;-88
2023/06/24 15:43:45;;;;;;;;;;;;;;;;;;;;;
2023/06/24 15:55:52;;;;;;;9.65;5.47;;;;;;;21.47;53.20;99335.56;5894846;24;20033;-91
2023/06/24 16:02:28;;;;;;;11.00;5.22;;;;;;;21.69;53.07;99344.88;5902616;24;20025;-92
2023/06/24 16:05:42;;;;;;;;;;;;;;;;;;;;;
2023/06/24 16:09:06;;;;;;;8.98;4.90;;;;;;;21.74;53.53;99365.97;5874854;24;20022;-90
2023/06/24 16:11:33;;;;;;;7.15;4.60;;;;;;;21.38;53.30;99335.09;5909289;24;20062;-85
2023/06/24 16:14:01;;;;;;;9.10;4.90;;;;;;;21.47;53.93;99385.66;5902256;24;20051;-89
2023/06/24 16:16:27;;;;;;;12.32;4.78;;;;;;;21.17;54.08;99363.50;5881534;24;20478;-84
2023/06/24 16:18:53;;;;;;;8.40;4.93;;;;;;;21.28;54.63;99388.63;5860447;24;20029;-88
2023/06/24 16:21:19;;;;;;;8.98;4.72;;;;;;;21.04;54.17;99364.97;5869684;24;20727;-93
2023/06/24 16:23:47;;;;;;;9.43;5.93;;;;;;;21.07;54.86;99380.88;5867372;24;20450;-82
2023/06/24 16:26:17;;;;;;;10.05;5.18;;;;;;;21.04;55.09;99384.41;5885525;24;20283;-93
2023/06/24 16:28:43;;;;;;;10.98;5.20;;;;;;;20.86;55.82;99373.09;5890132;24;20166;-81